Time;durP1;ratioP1;P1;durP2;ratioP2;P2;SDS_P1;SDS_P2;PMS_P1;PMS_P2;Temp;Humidity;BMP_temperature;BMP_pressure;BME280_temperature;BME280_humidity;BME280_pressure;Samples;Min_cycle;Max_cycle;Signal;HPM_P1;HPM_P2
2021/08/04 00:02:00;;;;;;;;;10.33;10.00;;;;;;;;5074804;27;51934;-67
2021/08/04 00:04:25;;;;;;;;;11.00;10.67;;;;;;;;5075062;27;51111;-67
2021/08/04 00:06:51;;;;;;;;;4.33;3.67;;;;;;;;5074741;27;51407;-67
2021/08/04 00:09:16;;;;;;;;;10.00;9.00;;;;;;;;5075141;27;51195;-66
2021/08/04 00:11:41;;;;;;;;;10.00;9.67;;;;;;;;5074403;28;51025;-66
2021/08/04 00:14:07;;;;;;;;;10.33;10.33;;;;;;;;5074612;27;50905;-66
2021/08/04 00:16:32;;;;;;;;;10.00;9.67;;;;;;;;5075059;27;51102;-67
2021/08/04 00:18:57;;;;;;;;;10.67;9.33;;;;;;;;5074969;27;51410;-67
2021/08/04 00:21:22;;;;;;;;;10.33;10.00;;;;;;;;5074504;27;51996;-67
2021/08/04 00:23:48;;;;;;;;;11.33;11.33;;;;;;;;5074577;27;51101;-66
2021/08/04 00:26:13;;;;;;;;;11.67;11.00;;;;;;;;5074659;27;50898;-66
2021/08/04 00:28:38;;;;;;;;;10.33;9.33;;;;;;;;5074699;28;50934;-68
2021/08/04 00:31:03;;;;;;;;;9.00;8.33;;;;;;;;5074644;28;52104;-67
2021/08/04 00:33:29;;;;;;;;;10.00;10.00;;;;;;;;5074586;27;51207;-67
2021/08/04 00:35:54;;;;;;;;;10.00;10.00;;;;;;;;5074907;27;51160;-66
2021/08/04 00:38:20;;;;;;;;;10.50;10.50;;;;;;;;5074563;27;51385;-66
2021/08/04 00:40:46;;;;;;;;;13.00;12.67;;;;;;;;5074441;27;51133;-66
2021/08/04 00:43:11;;;;;;;;;11.75;11.00;;;;;;;;5072805;27;50909;-67
2021/08/04 00:45:37;;;;;;;;;11.50;11.25;;;;;;;;5074704;28;50930;-66
2021/08/04 00:48:03;;;;;;;;;10.00;10.00;;;;;;;;5074497;27;51268;-66
2021/08/04 00:50:29;;;;;;;;;12.67;12.33;;;;;;;;5074338;27;51931;-66
2021/08/04 00:52:54;;;;;;;;;13.33;12.00;;;;;;;;5074010;27;50952;-66
2021/08/04 00:55:19;;;;;;;;;13.00;11.00;;;;;;;;5074251;27;50881;-67
2021/08/04 00:57:44;;;;;;;;;11.00;9.50;;;;;;;;5074032;27;51077;-67
2021/08/04 01:00:10;;;;;;;;;12.00;11.00;;;;;;;;5073918;27;52190;-67
2021/08/04 01:03:01;;;;;;;;;13.75;13.75;;;;;;;;5070928;27;51009;-66
2021/08/04 01:05:32;;;;;;;;;8.00;7.00;;;;;;;;5071763;27;51356;-67
2021/08/04 01:08:14;;;;;;;;;13.00;12.00;;;;;;;;5073821;27;51204;-66
2021/08/04 01:10:42;;;;;;;;;11.67;11.67;;;;;;;;5073811;27;50893;-68
2021/08/04 01:13:14;;;;;;;;;11.33;11.00;;;;;;;;5073536;27;50973;-67
2021/08/04 01:15:43;;;;;;;;;12.00;11.67;;;;;;;;5072740;28;51088;-67
2021/08/04 01:18:10;;;;;;;;;12.33;12.33;;;;;;;;5074084;27;51111;-67
2021/08/04 01:20:35;;;;;;;;;10.00;10.00;;;;;;;;5072071;28;53250;-67
2021/08/04 01:23:01;;;;;;;;;9.00;9.00;;;;;;;;5073733;27;50962;-66
2021/08/04 01:25:30;;;;;;;;;11.25;10.75;;;;;;;;5073961;27;51121;-67
2021/08/04 01:28:14;;;;;;;;;10.00;9.67;;;;;;;;5073717;27;51003;-67
2021/08/04 01:30:40;;;;;;;;;11.00;11.00;;;;;;;;5073480;28;51174;-67
2021/08/04 01:33:05;;;;;;;;;12.00;11.00;;;;;;;;5073512;27;51002;-67
2021/08/04 01:35:31;;;;;;;;;12.00;11.00;;;;;;;;5073765;27;51249;-67
2021/08/04 01:37:56;;;;;;;;;12.67;12.00;;;;;;;;5072326;27;51262;-67
2021/08/04 01:40:23;;;;;;;;;10.67;10.33;;;;;;;;5073375;28;52469;-68
2021/08/04 01:42:49;;;;;;;;;11.67;10.67;;;;;;;;5072925;27;51045;-66
2021/08/04 01:45:14;;;;;;;;;7.00;6.33;;;;;;;;5073460;27;50961;-67
2021/08/04 01:47:40;;;;;;;;;12.00;11.67;;;;;;;;5072241;28;51223;-67
2021/08/04 01:50:06;;;;;;;;;9.00;9.00;;;;;;;;5073233;27;52299;-67
2021/08/04 01:52:31;;;;;;;;;12.33;10.33;;;;;;;;5073127;27;51027;-67
2021/08/04 01:54:57;;;;;;;;;10.00;9.25;;;;;;;;5072703;27;50942;-67
2021/08/04 01:57:22;;;;;;;;;10.33;10.33;;;;;;;;5073046;27;51264;-67
2021/08/04 01:59:47;;;;;;;;;12.50;11.00;;;;;;;;5072825;27;52813;-67
2021/08/04 02:02:15;;;;;;;;;8.75;8.00;;;;;;;;5073026;27;51070;-66
2021/08/04 02:04:41;;;;;;;;;9.33;9.00;;;;;;;;5073147;27;51149;-67
2021/08/04 02:07:10;;;;;;;;;9.67;8.33;;;;;;;;5072947;27;51010;-67
2021/08/04 02:09:44;;;;;;;;;8.33;8.00;;;;;;;;5072919;27;51113;-67
2021/08/04 02:12:10;;;;;;;;;10.00;9.00;;;;;;;;5072388;27;51133;-67
2021/08/04 02:15:01;;;;;;;;;8.00;8.00;;;;;;;;5072873;27;51073;-67
2021/08/04 02:17:47;;;;;;;;;9.00;9.00;;;;;;;;5071860;28;51016;-67
2021/08/04 02:20:21;;;;;;;;;9.00;9.00;;;;;;;;5072128;28;51911;-67
2021/08/04 02:22:46;;;;;;;;;10.00;10.00;;;;;;;;5072782;27;50987;-67
2021/08/04 02:25:14;;;;;;;;;12.33;12.00;;;;;;;;5072729;27;51330;-67
2021/08/04 02:27:41;;;;;;;;;12.33;10.67;;;;;;;;5071383;28;50976;-69
2021/08/04 02:30:10;;;;;;;;;11.00;10.33;;;;;;;;5072331;27;52428;-66
2021/08/04 02:32:36;;;;;;;;;9.00;9.00;;;;;;;;5070966;28;50927;-68
2021/08/04 02:35:02;;;;;;;;;11.67;11.00;;;;;;;;5072398;27;51388;-67
2021/08/04 02:37:28;;;;;;;;;12.00;11.25;;;;;;;;5072795;27;51261;-67
2021/08/04 02:39:54;;;;;;;;;11.67;10.33;;;;;;;;5072333;27;52144;-67
2021/08/04 02:42:19;;;;;;;;;14.75;11.25;;;;;;;;5072086;27;50978;-67
2021/08/04 02:44:44;;;;;;;;;10.00;9.67;;;;;;;;5072601;27;50933;-67
2021/08/04 02:47:10;;;;;;;;;12.00;10.67;;;;;;;;5072831;28;51375;-67
2021/08/04 02:49:35;;;;;;;;;11.75;10.75;;;;;;;;5072279;27;52257;-67
2021/08/04 02:52:00;;;;;;;;;11.75;11.75;;;;;;;;5072578;28;51043;-67
2021/08/04 02:54:26;;;;;;;;;14.00;13.00;;;;;;;;5061186;27;51157;-67
2021/08/04 02:56:51;;;;;;;;;10.75;10.50;;;;;;;;5072533;27;51408;-68
2021/08/04 02:59:16;;;;;;;;;10.33;10.33;;;;;;;;5070896;28;52180;-67
2021/08/04 03:01:41;;;;;;;;;11.00;10.75;;;;;;;;5073403;27;50886;-66
2021/08/04 03:04:06;;;;;;;;;11.50;10.75;;;;;;;;5070933;27;51187;-67
2021/08/04 03:06:32;;;;;;;;;13.25;12.25;;;;;;;;5063907;28;51369;-67
2021/08/04 03:08:57;;;;;;;;;11.00;11.00;;;;;;;;5075466;27;50993;-67
2021/08/04 03:11:22;;;;;;;;;10.00;10.00;;;;;;;;5075701;28;50927;-66
2021/08/04 03:13:47;;;;;;;;;11.75;11.75;;;;;;;;5075737;27;50976;-66
2021/08/04 03:16:12;;;;;;;;;13.50;13.00;;;;;;;;5075996;27;51026;-66
2021/08/04 03:18:38;;;;;;;;;14.75;14.00;;;;;;;;5075276;28;52069;-66
2021/08/04 03:21:03;;;;;;;;;13.50;12.25;;;;;;;;5075494;27;50886;-66
2021/08/04 03:23:28;;;;;;;;;13.25;12.00;;;;;;;;5075696;27;50897;-66
2021/08/04 03:25:53;;;;;;;;;15.50;12.50;;;;;;;;5075627;27;50851;-67
2021/08/04 03:28:22;;;;;;;;;14.25;13.00;;;;;;;;5075251;28;51946;-66
2021/08/04 03:30:47;;;;;;;;;15.00;14.75;;;;;;;;5075250;27;50967;-67
2021/08/04 03:33:12;;;;;;;;;13.75;13.50;;;;;;;;5075514;27;50879;-67
2021/08/04 03:35:37;;;;;;;;;13.25;12.25;;;;;;;;5075690;27;50942;-67
2021/08/04 03:38:03;;;;;;;;;12.50;12.00;;;;;;;;5074754;27;51158;-67
2021/08/04 03:40:28;;;;;;;;;13.75;13.00;;;;;;;;5075359;27;51131;-67
2021/08/04 03:42:53;;;;;;;;;13.25;12.50;;;;;;;;5074967;27;51002;-66
2021/08/04 03:45:18;;;;;;;;;13.50;12.25;;;;;;;;5075500;27;51253;-66
2021/08/04 03:47:43;;;;;;;;;13.00;11.00;;;;;;;;5075108;27;51811;-68
2021/08/04 03:50:09;;;;;;;;;11.75;11.25;;;;;;;;5075070;27;51114;-67
2021/08/04 03:52:34;;;;;;;;;10.50;10.00;;;;;;;;5075021;27;51037;-68
2021/08/04 03:55:00;;;;;;;;;11.00;11.00;;;;;;;;5075487;27;51054;-67
2021/08/04 03:57:25;;;;;;;;;11.75;11.25;;;;;;;;5074677;27;51232;-68
2021/08/04 03:59:50;;;;;;;;;12.00;12.00;;;;;;;;5075055;27;50985;-68
2021/08/04 04:02:15;;;;;;;;;11.00;10.00;;;;;;;;5075144;27;51208;-67
2021/08/04 04:04:41;;;;;;;;;10.75;10.75;;;;;;;;5071943;28;51449;-68
2021/08/04 04:07:06;;;;;;;;;11.75;11.25;;;;;;;;5067063;28;52346;-68
2021/08/04 04:09:31;;;;;;;;;12.75;10.00;;;;;;;;5074835;27;51021;-67
2021/08/04 04:11:56;;;;;;;;;9.00;9.00;;;;;;;;5074670;28;51049;-66
2021/08/04 04:14:22;;;;;;;;;8.75;8.75;;;;;;;;5073497;28;51427;-67
2021/08/04 04:16:47;;;;;;;;;12.00;11.00;;;;;;;;5074263;27;51114;-67
2021/08/04 04:19:12;;;;;;;;;10.25;10.25;;;;;;;;5074495;27;50933;-66
2021/08/04 04:21:37;;;;;;;;;11.50;10.75;;;;;;;;5074875;27;50896;-67
2021/08/04 04:24:03;;;;;;;;;13.25;12.00;;;;;;;;5074859;27;51014;-66
2021/08/04 04:26:28;;;;;;;;;11.67;11.67;;;;;;;;5074065;27;52023;-68
2021/08/04 04:28:53;;;;;;;;;12.00;11.00;;;;;;;;5074417;27;50875;-67
2021/08/04 04:31:18;;;;;;;;;11.00;10.25;;;;;;;;5074738;27;50945;-67
2021/08/04 04:33:44;;;;;;;;;10.33;10.33;;;;;;;;5074750;27;51288;-67
2021/08/04 04:36:09;;;;;;;;;9.67;8.67;;;;;;;;5074295;27;52043;-66
2021/08/04 04:38:34;;;;;;;;;11.00;11.00;;;;;;;;5074215;28;50994;-67
2021/08/04 04:40:59;;;;;;;;;10.50;9.75;;;;;;;;5074304;28;51029;-67
2021/08/04 04:43:25;;;;;;;;;11.00;11.00;;;;;;;;5074627;27;51289;-66
2021/08/04 04:45:50;;;;;;;;;11.00;10.25;;;;;;;;5074445;28;50902;-67
2021/08/04 04:48:15;;;;;;;;;13.00;12.75;;;;;;;;5074211;27;50954;-66
2021/08/04 04:50:40;;;;;;;;;8.67;8.67;;;;;;;;5074181;27;50856;-67
2021/08/04 04:53:05;;;;;;;;;12.75;12.25;;;;;;;;5074346;27;50840;-68
2021/08/04 04:55:31;;;;;;;;;9.00;9.00;;;;;;;;5074136;27;51313;-67
2021/08/04 04:57:56;;;;;;;;;11.25;10.50;;;;;;;;5074061;27;51154;-68
2021/08/04 05:00:21;;;;;;;;;10.33;10.33;;;;;;;;5075425;27;51307;-67
2021/08/04 05:02:46;;;;;;;;;13.00;12.00;;;;;;;;5074323;28;50935;-67
2021/08/04 05:05:12;;;;;;;;;10.50;10.50;;;;;;;;5067890;27;51252;-67
2021/08/04 05:07:37;;;;;;;;;14.00;11.50;;;;;;;;5073740;27;51091;-68
2021/08/04 05:10:02;;;;;;;;;15.00;13.33;;;;;;;;5074280;28;51077;-67
2021/08/04 05:12:37;;;;;;;;;11.00;11.00;;;;;;;;5073913;27;51017;-68
2021/08/04 05:15:03;;;;;;;;;10.33;10.33;;;;;;;;5070871;27;51829;-68
2021/08/04 05:17:29;;;;;;;;;11.33;10.67;;;;;;;;5073607;27;51079;-68
2021/08/04 05:19:54;;;;;;;;;13.00;12.25;;;;;;;;5073830;27;51042;-67
2021/08/04 05:22:19;;;;;;;;;12.50;12.00;;;;;;;;5073919;27;51080;-68
2021/08/04 05:24:44;;;;;;;;;10.75;10.75;;;;;;;;5073813;27;50993;-67
2021/08/04 05:27:09;;;;;;;;;11.33;11.33;;;;;;;;5073369;27;50966;-67
2021/08/04 05:29:35;;;;;;;;;9.67;9.67;;;;;;;;5072988;27;51155;-68
2021/08/04 05:32:00;;;;;;;;;9.00;9.00;;;;;;;;5073642;27;50989;-68
2021/08/04 05:34:25;;;;;;;;;11.00;11.00;;;;;;;;5073028;27;51967;-66
2021/08/04 05:36:50;;;;;;;;;12.50;11.75;;;;;;;;5073175;27;51095;-66
2021/08/04 05:39:15;;;;;;;;;11.67;11.67;;;;;;;;5073401;27;51157;-66
2021/08/04 05:41:42;;;;;;;;;13.00;12.00;;;;;;;;5073132;27;51085;-66
2021/08/04 05:44:07;;;;;;;;;12.67;11.00;;;;;;;;5073124;27;51187;-67
2021/08/04 05:46:32;;;;;;;;;12.00;11.00;;;;;;;;5072941;27;50893;-66
2021/08/04 05:48:58;;;;;;;;;13.33;13.00;;;;;;;;5073353;27;51339;-67
2021/08/04 05:51:23;;;;;;;;;9.67;9.67;;;;;;;;5073372;27;51035;-66
2021/08/04 05:53:48;;;;;;;;;19.00;17.00;;;;;;;;5072814;27;51209;-67
2021/08/04 05:56:13;;;;;;;;;13.00;12.67;;;;;;;;5072633;27;50858;-66
2021/08/04 05:58:39;;;;;;;;;11.50;11.25;;;;;;;;5073076;27;50925;-66
2021/08/04 06:01:04;;;;;;;;;13.33;12.00;;;;;;;;5073242;27;50841;-67
2021/08/04 06:03:29;;;;;;;;;15.00;14.00;;;;;;;;5072886;28;50950;-66
2021/08/04 06:05:54;;;;;;;;;13.00;12.00;;;;;;;;5072842;27;51024;-67
2021/08/04 06:08:19;;;;;;;;;14.00;13.25;;;;;;;;5070202;28;51115;-66
2021/08/04 06:10:45;;;;;;;;;13.33;12.00;;;;;;;;5070870;27;51015;-67
2021/08/04 06:13:10;;;;;;;;;13.00;10.67;;;;;;;;5070964;27;52015;-67
2021/08/04 06:15:35;;;;;;;;;13.67;13.67;;;;;;;;5071127;27;51055;-67
2021/08/04 06:18:00;;;;;;;;;12.67;12.33;;;;;;;;5071262;27;51167;-66
2021/08/04 06:20:26;;;;;;;;;11.33;11.00;;;;;;;;5071130;27;51161;-68
2021/08/04 06:22:51;;;;;;;;;13.33;12.67;;;;;;;;5071008;27;51069;-68
2021/08/04 06:25:16;;;;;;;;;12.67;12.33;;;;;;;;5070862;28;50961;-67
2021/08/04 06:27:41;;;;;;;;;11.67;10.00;;;;;;;;5071118;28;51053;-67
2021/08/04 06:30:07;;;;;;;;;14.33;14.00;;;;;;;;5070897;27;51191;-68
2021/08/04 06:32:32;;;;;;;;;11.00;10.00;;;;;;;;5070646;27;51708;-67
2021/08/04 06:34:58;;;;;;;;;14.00;12.33;;;;;;;;5070725;27;50920;-67
2021/08/04 06:37:23;;;;;;;;;14.33;13.67;;;;;;;;5071001;27;51237;-68
2021/08/04 06:39:48;;;;;;;;;12.00;12.00;;;;;;;;5070924;27;51382;-68
2021/08/04 06:42:13;;;;;;;;;11.67;11.67;;;;;;;;5069386;28;51213;-68
2021/08/04 06:44:40;;;;;;;;;10.33;10.33;;;;;;;;5070396;27;51071;-67
2021/08/04 06:47:05;;;;;;;;;10.33;9.67;;;;;;;;5070926;27;51064;-67
2021/08/04 06:49:30;;;;;;;;;13.00;12.67;;;;;;;;5070539;27;51290;-67
2021/08/04 06:51:55;;;;;;;;;11.67;10.67;;;;;;;;5070715;27;52566;-67
2021/08/04 06:54:23;;;;;;;;;12.67;12.00;;;;;;;;5070640;27;51183;-68
2021/08/04 06:56:48;;;;;;;;;17.67;17.00;;;;;;;;5070351;27;51009;-68
2021/08/04 06:59:13;;;;;;;;;14.33;14.00;;;;;;;;5070757;27;50850;-67
2021/08/04 07:01:39;;;;;;;;;13.33;13.33;;;;;;;;5070404;28;51386;-67
2021/08/04 07:04:04;;;;;;;;;15.00;13.33;;;;;;;;5070594;28;51035;-68
2021/08/04 07:06:29;;;;;;;;;16.75;14.00;;;;;;;;5063658;27;51220;-67
2021/08/04 07:08:55;;;;;;;;;15.00;12.00;;;;;;;;5031974;27;1114679;-67
2021/08/04 07:11:22;;;;;;;;;11.33;11.33;;;;;;;;5071436;27;52109;-67
2021/08/04 07:13:48;;;;;;;;;14.00;13.00;;;;;;;;5071742;27;51230;-68
2021/08/04 07:16:14;;;;;;;;;14.67;14.00;;;;;;;;5071898;27;51082;-67
2021/08/04 07:18:39;;;;;;;;;14.33;13.00;;;;;;;;5071715;27;51375;-68
2021/08/04 07:21:04;;;;;;;;;12.00;11.00;;;;;;;;5071736;28;51028;-68
2021/08/04 07:23:29;;;;;;;;;13.67;13.33;;;;;;;;5071474;27;51245;-67
2021/08/04 07:25:54;;;;;;;;;12.33;12.33;;;;;;;;5071801;28;50904;-67
2021/08/04 07:28:20;;;;;;;;;16.00;15.00;;;;;;;;5071744;28;51292;-68
2021/08/04 07:30:45;;;;;;;;;16.00;15.33;;;;;;;;5071203;27;51957;-66
2021/08/04 07:33:10;;;;;;;;;13.67;13.67;;;;;;;;5071525;28;51148;-65
2021/08/04 07:35:35;;;;;;;;;14.00;12.00;;;;;;;;5071642;27;51059;-66
2021/08/04 07:38:01;;;;;;;;;11.00;11.00;;;;;;;;5071444;27;50979;-66
2021/08/04 07:40:26;;;;;;;;;14.00;13.67;;;;;;;;5071222;27;51035;-65
2021/08/04 07:42:51;;;;;;;;;11.00;10.00;;;;;;;;5071174;28;50882;-67
2021/08/04 07:45:18;;;;;;;;;13.67;13.00;;;;;;;;5071682;27;50882;-66
2021/08/04 07:47:43;;;;;;;;;17.00;13.33;;;;;;;;5071446;27;51036;-65
2021/08/04 07:50:09;;;;;;;;;13.00;11.33;;;;;;;;5071014;27;50895;-66
2021/08/04 07:52:34;;;;;;;;;7.67;7.33;;;;;;;;5072545;27;50903;-66
2021/08/04 07:54:59;;;;;;;;;16.00;14.00;;;;;;;;5074848;27;50859;-65
2021/08/04 07:57:25;;;;;;;;;11.33;11.33;;;;;;;;5074298;27;51120;-66
2021/08/04 07:59:50;;;;;;;;;12.33;11.67;;;;;;;;5074730;27;52572;-65
2021/08/04 08:02:15;;;;;;;;;11.00;11.00;;;;;;;;5074361;28;51052;-65
2021/08/04 08:04:40;;;;;;;;;11.33;10.67;;;;;;;;5074473;27;50876;-65
2021/08/04 08:07:06;;;;;;;;;8.00;8.00;;;;;;;;5074755;27;50905;-65
2021/08/04 08:09:31;;;;;;;;;11.00;9.33;;;;;;;;5074573;28;52180;-65
2021/08/04 08:11:58;;;;;;;;;9.67;8.33;;;;;;;;5074370;27;51124;-65
2021/08/04 08:14:23;;;;;;;;;10.67;9.33;;;;;;;;5070959;28;51022;-65
2021/08/04 08:16:49;;;;;;;;;8.33;8.33;;;;;;;;5074666;28;50996;-66
2021/08/04 08:19:14;;;;;;;;;11.33;10.00;;;;;;;;5074428;27;52010;-66
2021/08/04 08:21:39;;;;;;;;;9.00;9.00;;;;;;;;5074408;27;50994;-66
2021/08/04 08:24:05;;;;;;;;;9.33;8.33;;;;;;;;5074287;27;51067;-65
2021/08/04 08:26:30;;;;;;;;;10.67;10.00;;;;;;;;5073978;27;51259;-67
2021/08/04 08:28:55;;;;;;;;;10.67;10.67;;;;;;;;5073702;27;51958;-65
2021/08/04 08:31:20;;;;;;;;;12.33;10.33;;;;;;;;5073956;28;51046;-65
2021/08/04 08:33:46;;;;;;;;;11.00;9.00;;;;;;;;5073900;27;51254;-65
2021/08/04 08:36:11;;;;;;;;;8.67;8.67;;;;;;;;5074149;27;51205;-65
2021/08/04 08:38:37;;;;;;;;;10.00;10.00;;;;;;;;5073878;27;52248;-65
2021/08/04 08:41:03;;;;;;;;;10.33;9.67;;;;;;;;5073085;27;51467;-64
2021/08/04 08:43:28;;;;;;;;;12.00;11.00;;;;;;;;5074208;28;50828;-65
2021/08/04 08:45:55;;;;;;;;;8.00;7.00;;;;;;;;5074167;27;50892;-67
2021/08/04 08:48:20;;;;;;;;;5.33;5.00;;;;;;;;5073711;28;51383;-65
2021/08/04 08:50:47;;;;;;;;;10.00;9.00;;;;;;;;5074055;28;50927;-66
2021/08/04 08:53:12;;;;;;;;;8.00;7.00;;;;;;;;5074169;27;51235;-67
2021/08/04 08:55:38;;;;;;;;;8.67;8.33;;;;;;;;5073844;28;50854;-65
2021/08/04 08:58:03;;;;;;;;;7.33;7.33;;;;;;;;5072104;28;52634;-66
2021/08/04 09:00:29;;;;;;;;;8.00;8.00;;;;;;;;5073822;27;50989;-64
2021/08/04 09:02:54;;;;;;;;;8.00;8.00;;;;;;;;5073779;28;51012;-66
2021/08/04 09:05:20;;;;;;;;;7.67;7.33;;;;;;;;5072658;27;51031;-65
2021/08/04 09:07:47;;;;;;;;;6.00;6.00;;;;;;;;5069886;27;51950;-66
2021/08/04 09:10:19;;;;;;;;;5.00;5.00;;;;;;;;5073763;27;51049;-66
2021/08/04 09:12:48;;;;;;;;;6.00;6.00;;;;;;;;5073094;27;51300;-66
2021/08/04 09:15:27;;;;;;;;;8.33;8.00;;;;;;;;5073725;27;50974;-66
2021/08/04 09:17:58;;;;;;;;;5.33;5.33;;;;;;;;5073450;27;52185;-65
2021/08/04 09:20:25;;;;;;;;;7.00;6.00;;;;;;;;5073408;28;50884;-66
2021/08/04 09:22:50;;;;;;;;;8.33;7.00;;;;;;;;5073268;27;50862;-66
2021/08/04 09:25:16;;;;;;;;;6.00;5.33;;;;;;;;5071308;28;51453;-65
2021/08/04 09:27:41;;;;;;;;;6.00;6.00;;;;;;;;5072065;27;52315;-66
2021/08/04 09:30:07;;;;;;;;;7.00;7.00;;;;;;;;5072312;27;51174;-66
2021/08/04 09:32:32;;;;;;;;;7.00;7.00;;;;;;;;5072816;28;50981;-66
2021/08/04 09:35:08;;;;;;;;;5.00;5.00;;;;;;;;5072548;27;51289;-63
2021/08/04 09:37:33;;;;;;;;;8.33;8.33;;;;;;;;5071561;27;51029;-64
2021/08/04 09:39:58;;;;;;;;;7.00;6.00;;;;;;;;5072248;27;51041;-64
2021/08/04 09:42:39;;;;;;;;;7.67;7.67;;;;;;;;5072526;27;51151;-65
2021/08/04 09:45:04;;;;;;;;;5.67;5.33;;;;;;;;5072500;27;50891;-65
2021/08/04 09:47:30;;;;;;;;;7.67;7.67;;;;;;;;5071978;27;52135;-65
2021/08/04 09:49:57;;;;;;;;;6.00;6.00;;;;;;;;5072554;28;50856;-64
2021/08/04 09:52:22;;;;;;;;;7.00;7.00;;;;;;;;5072658;27;51026;-65
2021/08/04 09:54:47;;;;;;;;;7.00;6.00;;;;;;;;5072250;27;51047;-64
2021/08/04 09:57:13;;;;;;;;;8.00;7.33;;;;;;;;5071510;28;52505;-65
2021/08/04 09:59:38;;;;;;;;;7.00;7.00;;;;;;;;5072265;27;51107;-65
2021/08/04 10:02:05;;;;;;;;;6.67;6.00;;;;;;;;5072310;27;51051;-65
2021/08/04 10:04:30;;;;;;;;;5.33;5.33;;;;;;;;5072520;27;51329;-65
2021/08/04 10:07:06;;;;;;;;;8.33;8.33;;;;;;;;5071792;27;50992;-65
2021/08/04 10:09:31;;;;;;;;;6.00;6.00;;;;;;;;5072086;27;51019;-65
2021/08/04 10:11:57;;;;;;;;;8.00;8.00;;;;;;;;5071900;27;51169;-67
2021/08/04 10:14:22;;;;;;;;;6.33;6.00;;;;;;;;5071581;27;51251;-65
2021/08/04 10:16:49;;;;;;;;;4.00;4.00;;;;;;;;5071207;27;51817;-65
2021/08/04 10:19:14;;;;;;;;;6.33;6.33;;;;;;;;5070643;28;50911;-66
2021/08/04 10:21:42;;;;;;;;;6.00;6.00;;;;;;;;5072193;27;51023;-66
2021/08/04 10:24:08;;;;;;;;;5.00;5.00;;;;;;;;5072371;27;51062;-65
2021/08/04 10:26:36;;;;;;;;;6.67;5.67;;;;;;;;5069551;28;51140;-65
2021/08/04 10:29:03;;;;;;;;;7.00;6.33;;;;;;;;5072442;27;51016;-66
2021/08/04 10:31:31;;;;;;;;;5.00;5.00;;;;;;;;5072624;27;51216;-66
2021/08/04 10:33:58;;;;;;;;;7.00;5.67;;;;;;;;5072871;27;51199;-67
2021/08/04 10:36:29;;;;;;;;;5.00;5.00;;;;;;;;5071605;28;51912;-66
2021/08/04 10:38:57;;;;;;;;;4.33;4.33;;;;;;;;5072026;28;51143;-66
2021/08/04 10:41:25;;;;;;;;;3.00;3.00;;;;;;;;5071328;27;51134;-65
2021/08/04 10:43:58;;;;;;;;;6.00;6.00;;;;;;;;5070324;27;50971;-66
2021/08/04 10:46:30;;;;;;;;;4.67;4.67;;;;;;;;5071252;27;51735;-64
2021/08/04 10:48:55;;;;;;;;;6.33;6.33;;;;;;;;5071468;27;51141;-64
2021/08/04 10:51:21;;;;;;;;;5.00;4.67;;;;;;;;5071904;27;50889;-66
2021/08/04 10:54:02;;;;;;;;;6.33;6.33;;;;;;;;5072065;27;50930;-67
2021/08/04 10:56:30;;;;;;;;;8.33;8.00;;;;;;;;5071227;27;52803;-67
2021/08/04 10:59:10;;;;;;;;;6.00;5.67;;;;;;;;5071135;27;51029;-66
2021/08/04 11:01:37;;;;;;;;;6.67;6.00;;;;;;;;5071711;28;51164;-66
2021/08/04 11:04:06;;;;;;;;;8.00;7.00;;;;;;;;5070162;28;50891;-66
2021/08/04 11:06:31;;;;;;;;;10.00;9.00;;;;;;;;5070625;27;51880;-65
2021/08/04 11:09:28;;;;;;;;;7.00;7.00;;;;;;;;5065741;27;51005;-64
2021/08/04 11:11:55;;;;;;;;;6.33;6.33;;;;;;;;5049188;28;51129;-67
2021/08/04 11:14:39;;;;;;;;;8.00;8.00;;;;;;;;5070702;27;51057;-66
2021/08/04 11:17:05;;;;;;;;;9.33;8.33;;;;;;;;5070316;28;50949;-66
2021/08/04 11:19:36;;;;;;;;;7.00;7.00;;;;;;;;5071257;28;51060;-65
2021/08/04 11:22:16;;;;;;;;;8.00;8.00;;;;;;;;5070955;27;51107;-65
2021/08/04 11:25:11;;;;;;;;;6.00;6.00;;;;;;;;5069709;28;51181;-66
2021/08/04 11:27:56;;;;;;;;;9.67;9.00;;;;;;;;5066470;27;52010;-65
2021/08/04 11:30:27;;;;;;;;;5.67;5.67;;;;;;;;5057850;27;51382;-65
2021/08/04 11:33:11;;;;;;;;;7.33;7.00;;;;;;;;5074297;28;51018;-66
2021/08/04 11:35:36;;;;;;;;;6.00;6.00;;;;;;;;5074342;28;51003;-64
2021/08/04 11:38:02;;;;;;;;;6.33;6.33;;;;;;;;5073293;27;51140;-65
2021/08/04 11:40:28;;;;;;;;;7.00;6.67;;;;;;;;5073458;27;51065;-65
2021/08/04 11:42:57;;;;;;;;;6.00;6.00;;;;;;;;5073773;27;51063;-65
2021/08/04 11:45:22;;;;;;;;;7.00;7.00;;;;;;;;5073915;27;51023;-66
2021/08/04 11:47:49;;;;;;;;;6.00;5.50;;;;;;;;5073670;27;51838;-66
2021/08/04 11:50:14;;;;;;;;;8.00;8.00;;;;;;;;5073817;27;50918;-66
2021/08/04 11:52:41;;;;;;;;;6.00;5.00;;;;;;;;5072333;28;50945;-66
2021/08/04 11:55:12;;;;;;;;;4.67;4.67;;;;;;;;5074171;27;51062;-66
2021/08/04 11:57:42;;;;;;;;;6.00;6.00;;;;;;;;5071550;27;52077;-64
2021/08/04 12:00:09;;;;;;;;;8.00;8.00;;;;;;;;5072307;28;51266;-65
2021/08/04 12:02:35;;;;;;;;;8.33;8.33;;;;;;;;5073986;27;50915;-67
2021/08/04 12:05:01;;;;;;;;;7.67;7.00;;;;;;;;5067728;27;50992;-67
2021/08/04 12:07:28;;;;;;;;;6.00;5.33;;;;;;;;5070279;28;53014;-66
2021/08/04 12:09:58;;;;;;;;;6.00;6.00;;;;;;;;5073790;28;50974;-65
2021/08/04 12:12:24;;;;;;;;;9.00;9.00;;;;;;;;5072962;27;51076;-66
2021/08/04 12:14:51;;;;;;;;;9.67;8.33;;;;;;;;5073449;27;50906;-65
2021/08/04 12:17:23;;;;;;;;;8.00;8.00;;;;;;;;5073474;27;51979;-65
2021/08/04 12:19:49;;;;;;;;;7.00;7.00;;;;;;;;5072864;27;51036;-66
2021/08/04 12:22:16;;;;;;;;;9.67;9.67;;;;;;;;5072829;27;51087;-67
2021/08/04 12:24:49;;;;;;;;;10.67;10.00;;;;;;;;5072003;28;51048;-66
2021/08/04 12:27:27;;;;;;;;;9.67;9.67;;;;;;;;5072394;27;51107;-66
2021/08/04 12:30:04;;;;;;;;;12.33;11.00;;;;;;;;5072795;27;51046;-66
2021/08/04 12:32:32;;;;;;;;;5.67;5.00;;;;;;;;5072949;27;50830;-67
2021/08/04 12:35:02;;;;;;;;;5.67;5.67;;;;;;;;5073296;27;51025;-67
2021/08/04 12:37:29;;;;;;;;;7.00;6.00;;;;;;;;5073391;27;51156;-67
2021/08/04 12:40:03;;;;;;;;;8.00;7.33;;;;;;;;5074375;27;50812;-66
2021/08/04 12:42:28;;;;;;;;;6.33;6.00;;;;;;;;5073447;27;51128;-66
2021/08/04 12:45:12;;;;;;;;;7.67;6.33;;;;;;;;5073509;27;51239;-66
2021/08/04 12:47:37;;;;;;;;;7.00;6.33;;;;;;;;5073242;28;51021;-66
2021/08/04 12:50:03;;;;;;;;;5.00;5.00;;;;;;;;5073124;28;50934;-65
2021/08/04 12:52:35;;;;;;;;;7.00;7.00;;;;;;;;5073166;27;50805;-66
2021/08/04 12:55:10;;;;;;;;;7.00;7.00;;;;;;;;5072878;27;50984;-67
2021/08/04 12:57:35;;;;;;;;;9.33;7.67;;;;;;;;5072626;27;52412;-66
2021/08/04 13:00:04;;;;;;;;;7.00;7.00;;;;;;;;5072889;27;50898;-66
2021/08/04 13:02:37;;;;;;;;;8.00;8.00;;;;;;;;5073266;27;50856;-68
2021/08/04 13:05:04;;;;;;;;;7.00;7.00;;;;;;;;5072382;28;51302;-68
2021/08/04 13:07:39;;;;;;;;;8.00;8.00;;;;;;;;5072597;27;53210;-66
2021/08/04 13:10:05;;;;;;;;;9.33;9.33;;;;;;;;5061292;27;51170;-66
2021/08/04 13:12:31;;;;;;;;;7.00;7.00;;;;;;;;5069149;28;51052;-66
2021/08/04 13:14:57;;;;;;;;;10.00;9.00;;;;;;;;5072860;27;51211;-66
2021/08/04 13:17:23;;;;;;;;;9.33;9.33;;;;;;;;5071657;27;52082;-66
2021/08/04 13:19:48;;;;;;;;;8.00;8.00;;;;;;;;5072451;27;51005;-66
2021/08/04 13:22:13;;;;;;;;;9.67;9.00;;;;;;;;5070692;28;50882;-66
2021/08/04 13:24:38;;;;;;;;;8.67;8.67;;;;;;;;5073167;28;50929;-67
2021/08/04 13:27:22;;;;;;;;;2.33;1.33;;;;;;;;5072141;27;51308;-66
2021/08/04 13:29:47;;;;;;;;;9.00;8.00;;;;;;;;5070631;28;50992;-66
2021/08/04 13:32:12;;;;;;;;;5.33;5.33;;;;;;;;5071910;27;51151;-67
2021/08/04 13:34:38;;;;;;;;;5.00;5.00;;;;;;;;5072467;27;51087;-64
2021/08/04 13:37:03;;;;;;;;;7.33;5.67;;;;;;;;5071766;27;51991;-65
2021/08/04 13:39:28;;;;;;;;;10.00;9.00;;;;;;;;5072224;27;50943;-67
2021/08/04 13:41:53;;;;;;;;;7.00;7.00;;;;;;;;5072207;27;51021;-67
2021/08/04 13:44:19;;;;;;;;;8.67;8.00;;;;;;;;5072338;27;51187;-66
2021/08/04 13:46:44;;;;;;;;;7.67;7.33;;;;;;;;5071786;27;52206;-65
2021/08/04 13:49:09;;;;;;;;;5.00;4.00;;;;;;;;5072469;28;51102;-66
2021/08/04 13:51:35;;;;;;;;;5.00;5.00;;;;;;;;5071244;27;51527;-66
2021/08/04 13:54:00;;;;;;;;;8.00;7.67;;;;;;;;5072369;27;51168;-66
2021/08/04 13:56:26;;;;;;;;;6.00;5.67;;;;;;;;5070751;27;52109;-67
2021/08/04 13:58:52;;;;;;;;;4.00;3.33;;;;;;;;5071970;27;51172;-65
2021/08/04 14:01:17;;;;;;;;;6.33;6.33;;;;;;;;5071980;27;51264;-66
2021/08/04 14:03:42;;;;;;;;;6.67;6.00;;;;;;;;5071985;27;51160;-67
2021/08/04 14:06:07;;;;;;;;;5.67;5.67;;;;;;;;5071427;27;51996;-66
2021/08/04 14:08:33;;;;;;;;;5.67;5.67;;;;;;;;5071777;27;50977;-65
2021/08/04 14:10:58;;;;;;;;;7.33;6.00;;;;;;;;5071456;27;50872;-67
2021/08/04 14:13:23;;;;;;;;;9.00;8.33;;;;;;;;5071621;27;51281;-66
2021/08/04 14:15:48;;;;;;;;;7.00;6.67;;;;;;;;5071452;28;50849;-66
2021/08/04 14:18:13;;;;;;;;;6.33;6.00;;;;;;;;5071834;27;51124;-66
2021/08/04 14:20:39;;;;;;;;;5.33;5.00;;;;;;;;5071706;28;51007;-66
2021/08/04 14:23:08;;;;;;;;;4.33;4.00;;;;;;;;5071640;27;51376;-66
2021/08/04 14:25:34;;;;;;;;;4.00;4.00;;;;;;;;5070760;27;51086;-66
2021/08/04 14:28:03;;;;;;;;;5.33;5.33;;;;;;;;5071686;27;51072;-66